Terminal Aerodrome Forecast
Issued by NWS San Angelo, TX

Home | Current Version | Previous Version | Text Only | Print | Product List | Glossary On
Versions: 1 2 3 4 5 6 7 8 9 10 11 12
000
FTUS44 KSJT 011727
TAFSJT
TAF
KSJT 011727Z 0118/0218 09006KT P6SM SCT050
     FM011900 10008KT P6SM VCSH BKN060
     FM020500 VRB05KT P6SM SCT070=

USA.gov is the U.S. government's official web portal to all federal, state and local government web resources and services.